sensor_id;sensor_type;location;lat;lon;timestamp;pressure;altitude;pressure_sealevel;temperature;humidity
6833;BME280;3454;42.654;23.378;2022-11-03T00:01:12;95022.63;;;16.81;50.94
6833;BME280;3454;42.654;23.378;2022-11-03T00:03:37;95025.00;;;16.82;51.03
6833;BME280;3454;42.654;23.378;2022-11-03T00:06:03;95040.09;;;16.93;50.64
6833;BME280;3454;42.654;23.378;2022-11-03T00:08:32;95031.28;;;16.88;51.05
6833;BME280;3454;42.654;23.378;2022-11-03T00:11:09;95027.13;;;16.87;51.46
6833;BME280;3454;42.654;23.378;2022-11-03T00:13:36;95026.47;;;16.76;51.25
6833;BME280;3454;42.654;23.378;2022-11-03T00:16:02;95020.34;;;16.69;51.96
6833;BME280;3454;42.654;23.378;2022-11-03T00:18:28;95022.44;;;16.82;51.57
6833;BME280;3454;42.654;23.378;2022-11-03T00:21:02;95011.97;;;16.67;52.30
6833;BME280;3454;42.654;23.378;2022-11-03T00:23:30;95003.94;;;16.62;52.92
6833;BME280;3454;42.654;23.378;2022-11-03T00:28:32;94993.66;;;16.62;53.61
6833;BME280;3454;42.654;23.378;2022-11-03T00:31:00;94992.25;;;16.60;54.10
6833;BME280;3454;42.654;23.378;2022-11-03T00:33:30;94991.28;;;16.61;54.08
6833;BME280;3454;42.654;23.378;2022-11-03T00:35:57;94988.53;;;16.62;54.21
6833;BME280;3454;42.654;23.378;2022-11-03T00:38:23;94983.41;;;16.70;54.68
6833;BME280;3454;42.654;23.378;2022-11-03T00:40:56;94981.66;;;16.71;55.13
6833;BME280;3454;42.654;23.378;2022-11-03T00:43:23;94967.38;;;16.68;55.58
6833;BME280;3454;42.654;23.378;2022-11-03T00:45:49;94973.78;;;16.72;55.80
6833;BME280;3454;42.654;23.378;2022-11-03T00:48:15;94985.84;;;16.72;55.40
6833;BME280;3454;42.654;23.378;2022-11-03T00:51:03;94986.63;;;16.72;55.41
6833;BME280;3454;42.654;23.378;2022-11-03T00:53:30;94981.66;;;16.87;55.57
6833;BME280;3454;42.654;23.378;2022-11-03T00:55:56;94986.34;;;16.92;55.28
6833;BME280;3454;42.654;23.378;2022-11-03T00:58:21;94986.31;;;16.84;55.36
6833;BME280;3454;42.654;23.378;2022-11-03T01:00:47;94983.59;;;16.85;55.31
6833;BME280;3454;42.654;23.378;2022-11-03T01:03:12;94996.91;;;16.72;55.19
6833;BME280;3454;42.654;23.378;2022-11-03T01:05:41;95002.53;;;16.68;55.15
6833;BME280;3454;42.654;23.378;2022-11-03T01:08:33;94983.13;;;16.82;55.69
6833;BME280;3454;42.654;23.378;2022-11-03T01:11:11;94993.84;;;16.77;55.45
6833;BME280;3454;42.654;23.378;2022-11-03T01:13:56;94973.81;;;16.81;56.12
6833;BME280;3454;42.654;23.378;2022-11-03T01:16:22;94982.31;;;16.81;55.36
6833;BME280;3454;42.654;23.378;2022-11-03T01:18:47;94968.63;;;16.56;56.52
6833;BME280;3454;42.654;23.378;2022-11-03T01:21:13;94964.78;;;16.68;56.96
6833;BME280;3454;42.654;23.378;2022-11-03T01:23:38;94974.75;;;16.71;56.71
6833;BME280;3454;42.654;23.378;2022-11-03T01:26:05;94970.25;;;16.57;56.92
6833;BME280;3454;42.654;23.378;2022-11-03T01:28:35;94971.38;;;16.55;56.91
6833;BME280;3454;42.654;23.378;2022-11-03T01:31:06;94963.13;;;16.43;57.50
6833;BME280;3454;42.654;23.378;2022-11-03T01:33:31;94967.47;;;16.43;57.27
6833;BME280;3454;42.654;23.378;2022-11-03T01:35:57;94950.94;;;16.37;58.03
6833;BME280;3454;42.654;23.378;2022-11-03T01:38:23;94947.38;;;16.30;58.13
6833;BME280;3454;42.654;23.378;2022-11-03T01:40:48;94943.50;;;16.18;58.53
6833;BME280;3454;42.654;23.378;2022-11-03T01:43:20;94945.94;;;16.20;59.25
6833;BME280;3454;42.654;23.378;2022-11-03T01:45:48;94940.91;;;16.10;59.57
6833;BME280;3454;42.654;23.378;2022-11-03T01:48:16;94939.63;;;16.06;59.98
6833;BME280;3454;42.654;23.378;2022-11-03T01:50:43;94947.97;;;16.08;60.15
6833;BME280;3454;42.654;23.378;2022-11-03T01:53:12;94924.72;;;16.02;61.49
6833;BME280;3454;42.654;23.378;2022-11-03T01:55:38;94917.16;;;16.00;61.96
6833;BME280;3454;42.654;23.378;2022-11-03T01:58:18;94914.13;;;15.96;62.79
6833;BME280;3454;42.654;23.378;2022-11-03T02:00:46;94913.97;;;15.98;63.47
6833;BME280;3454;42.654;23.378;2022-11-03T02:03:13;94913.00;;;15.99;63.84
6833;BME280;3454;42.654;23.378;2022-11-03T02:05:40;94911.03;;;15.85;64.77
6833;BME280;3454;42.654;23.378;2022-11-03T02:08:16;94911.34;;;15.82;64.91
6833;BME280;3454;42.654;23.378;2022-11-03T02:10:46;94917.28;;;15.82;65.31
6833;BME280;3454;42.654;23.378;2022-11-03T02:13:18;94913.91;;;15.82;65.53
6833;BME280;3454;42.654;23.378;2022-11-03T02:15:49;94908.59;;;15.67;66.36
6833;BME280;3454;42.654;23.378;2022-11-03T02:18:18;94902.78;;;15.57;67.04
6833;BME280;3454;42.654;23.378;2022-11-03T02:20:45;94904.06;;;15.61;66.62
6833;BME280;3454;42.654;23.378;2022-11-03T02:25:58;94918.66;;;15.61;66.61
6833;BME280;3454;42.654;23.378;2022-11-03T02:28:29;94917.84;;;15.60;66.72
6833;BME280;3454;42.654;23.378;2022-11-03T02:31:15;94916.69;;;15.55;67.25
6833;BME280;3454;42.654;23.378;2022-11-03T02:33:56;94928.91;;;15.61;67.10
6833;BME280;3454;42.654;23.378;2022-11-03T02:36:30;94928.72;;;15.62;67.01
6833;BME280;3454;42.654;23.378;2022-11-03T02:39:08;94928.25;;;15.59;66.94
6833;BME280;3454;42.654;23.378;2022-11-03T02:41:36;94932.72;;;15.57;66.93
6833;BME280;3454;42.654;23.378;2022-11-03T02:44:06;94938.34;;;15.60;67.06
6833;BME280;3454;42.654;23.378;2022-11-03T02:46:33;94936.88;;;15.58;67.67
6833;BME280;3454;42.654;23.378;2022-11-03T02:48:59;94925.97;;;15.56;67.78
6833;BME280;3454;42.654;23.378;2022-11-03T02:51:25;94943.34;;;15.70;67.33
6833;BME280;3454;42.654;23.378;2022-11-03T02:54:04;94940.66;;;15.71;67.44
6833;BME280;3454;42.654;23.378;2022-11-03T02:56:33;94953.38;;;15.89;67.02
6833;BME280;3454;42.654;23.378;2022-11-03T02:59:07;94960.25;;;15.88;66.58
6833;BME280;3454;42.654;23.378;2022-11-03T03:01:37;94978.25;;;16.05;66.12
6833;BME280;3454;42.654;23.378;2022-11-03T03:04:15;94989.84;;;16.17;65.44
6833;BME280;3454;42.654;23.378;2022-11-03T03:06:46;94982.50;;;16.22;65.77
6833;BME280;3454;42.654;23.378;2022-11-03T03:09:20;94990.41;;;16.44;64.95
6833;BME280;3454;42.654;23.378;2022-11-03T03:11:50;95005.44;;;16.31;64.41
6833;BME280;3454;42.654;23.378;2022-11-03T03:14:20;95002.47;;;16.10;64.71
6833;BME280;3454;42.654;23.378;2022-11-03T03:17:03;94988.69;;;16.03;65.05
6833;BME280;3454;42.654;23.378;2022-11-03T03:19:48;94993.31;;;16.00;65.34
6833;BME280;3454;42.654;23.378;2022-11-03T03:27:58;94983.16;;;15.90;65.15
6833;BME280;3454;42.654;23.378;2022-11-03T03:30:27;94983.47;;;15.87;65.42
6833;BME280;3454;42.654;23.378;2022-11-03T03:32:55;94979.91;;;15.80;65.73
6833;BME280;3454;42.654;23.378;2022-11-03T03:35:24;94968.34;;;15.76;66.06
6833;BME280;3454;42.654;23.378;2022-11-03T03:37:53;94983.28;;;15.80;65.68
6833;BME280;3454;42.654;23.378;2022-11-03T03:40:30;94974.50;;;15.83;66.54
6833;BME280;3454;42.654;23.378;2022-11-03T03:43:00;94993.09;;;15.85;65.98
6833;BME280;3454;42.654;23.378;2022-11-03T03:45:27;94993.28;;;15.91;65.77
6833;BME280;3454;42.654;23.378;2022-11-03T03:48:13;95003.28;;;16.11;65.60
6833;BME280;3454;42.654;23.378;2022-11-03T03:50:43;94986.97;;;16.12;66.29
6833;BME280;3454;42.654;23.378;2022-11-03T03:53:11;94993.81;;;16.03;66.12
6833;BME280;3454;42.654;23.378;2022-11-03T03:55:42;94985.63;;;16.00;66.59
6833;BME280;3454;42.654;23.378;2022-11-03T03:58:11;94997.25;;;16.20;66.32
6833;BME280;3454;42.654;23.378;2022-11-03T04:00:37;94995.75;;;16.09;65.97
6833;BME280;3454;42.654;23.378;2022-11-03T04:03:05;94999.44;;;16.07;66.07
6833;BME280;3454;42.654;23.378;2022-11-03T04:05:31;95003.28;;;16.11;66.03
6833;BME280;3454;42.654;23.378;2022-11-03T04:07:56;94998.63;;;16.06;66.52
6833;BME280;3454;42.654;23.378;2022-11-03T04:10:23;95001.66;;;16.02;66.31
6833;BME280;3454;42.654;23.378;2022-11-03T04:12:49;95003.41;;;16.01;66.92
6833;BME280;3454;42.654;23.378;2022-11-03T04:15:33;95013.03;;;15.99;66.66
6833;BME280;3454;42.654;23.378;2022-11-03T04:18:19;95001.50;;;16.03;66.38
6833;BME280;3454;42.654;23.378;2022-11-03T04:21:03;94997.63;;;15.99;66.78
6833;BME280;3454;42.654;23.378;2022-11-03T04:23:47;94997.59;;;15.91;66.88
6833;BME280;3454;42.654;23.378;2022-11-03T04:26:16;94976.84;;;15.76;67.88
6833;BME280;3454;42.654;23.378;2022-11-03T04:28:42;94967.72;;;15.74;68.06
6833;BME280;3454;42.654;23.378;2022-11-03T04:31:15;94965.38;;;15.55;68.59
6833;BME280;3454;42.654;23.378;2022-11-03T04:33:41;94954.31;;;15.54;69.03
6833;BME280;3454;42.654;23.378;2022-11-03T04:36:20;94951.44;;;15.49;69.45
6833;BME280;3454;42.654;23.378;2022-11-03T04:38:47;94948.81;;;15.24;70.35
6833;BME280;3454;42.654;23.378;2022-11-03T04:41:19;94931.75;;;15.06;71.38
6833;BME280;3454;42.654;23.378;2022-11-03T04:43:45;94934.13;;;15.00;71.96
6833;BME280;3454;42.654;23.378;2022-11-03T04:46:14;94931.72;;;14.98;72.44
6833;BME280;3454;42.654;23.378;2022-11-03T04:48:40;94939.94;;;15.10;71.86
6833;BME280;3454;42.654;23.378;2022-11-03T04:51:16;94956.81;;;15.21;71.39
6833;BME280;3454;42.654;23.378;2022-11-03T04:53:49;94954.09;;;15.22;71.51
6833;BME280;3454;42.654;23.378;2022-11-03T04:56:19;94959.50;;;15.19;71.98
6833;BME280;3454;42.654;23.378;2022-11-03T04:58:46;94955.81;;;15.13;72.22
6833;BME280;3454;42.654;23.378;2022-11-03T05:01:14;94954.72;;;15.16;72.54
6833;BME280;3454;42.654;23.378;2022-11-03T05:03:42;94957.97;;;15.26;72.10
6833;BME280;3454;42.654;23.378;2022-11-03T05:06:14;94963.91;;;15.27;72.22
6833;BME280;3454;42.654;23.378;2022-11-03T05:08:42;94970.94;;;15.25;72.17
6833;BME280;3454;42.654;23.378;2022-11-03T05:11:58;94971.28;;;15.30;72.42
6833;BME280;3454;42.654;23.378;2022-11-03T05:14:12;94983.31;;;15.37;71.72
6833;BME280;3454;42.654;23.378;2022-11-03T05:16:38;94988.56;;;15.45;71.79
6833;BME280;3454;42.654;23.378;2022-11-03T05:19:11;95003.50;;;15.58;71.23
6833;BME280;3454;42.654;23.378;2022-11-03T05:21:39;94988.13;;;15.58;71.56
6833;BME280;3454;42.654;23.378;2022-11-03T05:24:10;95007.09;;;15.65;71.05
6833;BME280;3454;42.654;23.378;2022-11-03T05:26:37;95008.03;;;15.64;71.04
6833;BME280;3454;42.654;23.378;2022-11-03T05:29:09;95020.09;;;15.71;70.89
6833;BME280;3454;42.654;23.378;2022-11-03T05:31:40;95040.09;;;15.68;69.58
6833;BME280;3454;42.654;23.378;2022-11-03T05:37:06;95061.72;;;15.65;69.01
6833;BME280;3454;42.654;23.378;2022-11-03T05:39:40;95046.09;;;15.51;69.39
6833;BME280;3454;42.654;23.378;2022-11-03T05:42:29;95038.56;;;15.49;69.84
6833;BME280;3454;42.654;23.378;2022-11-03T05:44:56;95039.81;;;15.45;70.24
6833;BME280;3454;42.654;23.378;2022-11-03T05:50:09;95025.06;;;15.30;71.93
6833;BME280;3454;42.654;23.378;2022-11-03T05:52:36;95036.03;;;15.40;71.72
6833;BME280;3454;42.654;23.378;2022-11-03T05:55:02;95034.13;;;15.42;71.52
6833;BME280;3454;42.654;23.378;2022-11-03T05:57:28;95034.22;;;15.50;71.56
6833;BME280;3454;42.654;23.378;2022-11-03T05:59:54;95038.69;;;15.48;72.11
6833;BME280;3454;42.654;23.378;2022-11-03T06:02:38;95046.59;;;15.54;71.88
6833;BME280;3454;42.654;23.378;2022-11-03T06:05:23;95011.28;;;15.74;78.07
6833;BME280;3454;42.654;23.378;2022-11-03T06:07:54;95099.03;;;15.68;72.36
6833;BME280;3454;42.654;23.378;2022-11-03T06:10:47;95087.41;;;15.73;72.40
6833;BME280;3454;42.654;23.378;2022-11-03T06:13:18;95099.19;;;15.66;71.24
6833;BME280;3454;42.654;23.378;2022-11-03T06:15:45;95099.56;;;15.71;71.41
6833;BME280;3454;42.654;23.378;2022-11-03T06:18:20;95132.84;;;15.89;70.15
6833;BME280;3454;42.654;23.378;2022-11-03T06:20:55;95111.22;;;15.66;71.00
6833;BME280;3454;42.654;23.378;2022-11-03T06:23:22;95108.66;;;15.66;71.10
6833;BME280;3454;42.654;23.378;2022-11-03T06:25:48;95101.94;;;15.65;71.40
6833;BME280;3454;42.654;23.378;2022-11-03T06:28:25;95101.97;;;15.73;71.62
6833;BME280;3454;42.654;23.378;2022-11-03T06:30:52;95093.13;;;15.67;72.03
6833;BME280;3454;42.654;23.378;2022-11-03T06:35:49;95112.03;;;15.92;71.80
6833;BME280;3454;42.654;23.378;2022-11-03T06:38:21;95115.41;;;15.92;71.71
6833;BME280;3454;42.654;23.378;2022-11-03T06:40:51;95146.22;;;16.01;70.56
6833;BME280;3454;42.654;23.378;2022-11-03T06:43:19;95140.53;;;16.15;70.38
6833;BME280;3454;42.654;23.378;2022-11-03T06:45:57;95117.03;;;15.93;71.76
6833;BME280;3454;42.654;23.378;2022-11-03T06:48:26;95110.81;;;16.04;72.26
6833;BME280;3454;42.654;23.378;2022-11-03T06:50:53;95120.19;;;16.13;72.28
6833;BME280;3454;42.654;23.378;2022-11-03T06:53:24;95134.75;;;16.13;71.51
6833;BME280;3454;42.654;23.378;2022-11-03T06:55:50;95162.97;;;16.38;69.63
6833;BME280;3454;42.654;23.378;2022-11-03T06:58:29;95162.81;;;16.40;69.31
6833;BME280;3454;42.654;23.378;2022-11-03T07:00:59;95165.84;;;16.35;69.37
6833;BME280;3454;42.654;23.378;2022-11-03T07:03:28;95165.53;;;16.38;69.06
6833;BME280;3454;42.654;23.378;2022-11-03T07:06:22;95157.78;;;16.30;69.53
6833;BME280;3454;42.654;23.378;2022-11-03T07:08:58;95155.88;;;16.32;69.39
6833;BME280;3454;42.654;23.378;2022-11-03T07:11:24;95131.38;;;16.12;70.12
6833;BME280;3454;42.654;23.378;2022-11-03T07:16:43;95127.72;;;16.15;70.59
6833;BME280;3454;42.654;23.378;2022-11-03T07:19:22;95133.09;;;16.29;70.34
6833;BME280;3454;42.654;23.378;2022-11-03T07:24:28;95136.28;;;16.23;69.96
6833;BME280;3454;42.654;23.378;2022-11-03T07:29:34;95149.31;;;16.63;69.56
6833;BME280;3454;42.654;23.378;2022-11-03T07:32:00;95149.72;;;16.76;69.25
6833;BME280;3454;42.654;23.378;2022-11-03T07:34:31;95168.81;;;16.82;68.61
6833;BME280;3454;42.654;23.378;2022-11-03T07:36:57;95158.91;;;16.95;68.68
6833;BME280;3454;42.654;23.378;2022-11-03T07:39:25;95174.16;;;16.89;67.99
6833;BME280;3454;42.654;23.378;2022-11-03T07:41:53;95182.56;;;17.07;67.42
6833;BME280;3454;42.654;23.378;2022-11-03T07:44:20;95192.56;;;17.26;67.03
6833;BME280;3454;42.654;23.378;2022-11-03T07:46:46;95189.66;;;17.13;66.50
6833;BME280;3454;42.654;23.378;2022-11-03T07:49:23;95197.72;;;17.34;65.82
6833;BME280;3454;42.654;23.378;2022-11-03T07:51:50;95201.28;;;17.41;65.65
6833;BME280;3454;42.654;23.378;2022-11-03T07:54:20;95193.69;;;17.39;65.84
6833;BME280;3454;42.654;23.378;2022-11-03T07:56:50;95194.22;;;17.43;65.55
6833;BME280;3454;42.654;23.378;2022-11-03T07:59:30;95210.50;;;17.76;64.81
6833;BME280;3454;42.654;23.378;2022-11-03T08:01:58;95207.78;;;17.93;64.52
6833;BME280;3454;42.654;23.378;2022-11-03T08:04:26;95216.97;;;18.12;64.44
6833;BME280;3454;42.654;23.378;2022-11-03T08:06:52;95217.72;;;18.20;63.88
6833;BME280;3454;42.654;23.378;2022-11-03T08:09:18;95238.34;;;18.44;62.87
6833;BME280;3454;42.654;23.378;2022-11-03T08:11:44;95227.53;;;18.33;62.65
6833;BME280;3454;42.654;23.378;2022-11-03T08:14:09;95230.25;;;18.72;61.88
6833;BME280;3454;42.654;23.378;2022-11-03T08:16:35;95221.13;;;19.00;62.38
6833;BME280;3454;42.654;23.378;2022-11-03T08:19:01;95226.84;;;19.18;61.61
6833;BME280;3454;42.654;23.378;2022-11-03T08:21:27;95247.44;;;19.34;60.24
6833;BME280;3454;42.654;23.378;2022-11-03T08:23:52;95239.34;;;19.29;60.17
6833;BME280;3454;42.654;23.378;2022-11-03T08:26:18;95241.97;;;19.37;59.76
6833;BME280;3454;42.654;23.378;2022-11-03T08:28:44;95238.84;;;19.72;59.91
6833;BME280;3454;42.654;23.378;2022-11-03T08:31:10;95242.69;;;19.99;59.63
6833;BME280;3454;42.654;23.378;2022-11-03T08:33:35;95248.94;;;20.27;58.82
6833;BME280;3454;42.654;23.378;2022-11-03T08:36:02;95281.25;;;20.46;57.04
6833;BME280;3454;42.654;23.378;2022-11-03T08:38:28;95274.69;;;20.58;57.12
6833;BME280;3454;42.654;23.378;2022-11-03T08:40:55;95289.50;;;20.93;55.89
6833;BME280;3454;42.654;23.378;2022-11-03T08:43:21;95286.63;;;21.11;55.95
6833;BME280;3454;42.654;23.378;2022-11-03T08:45:46;95295.59;;;21.29;55.34
6833;BME280;3454;42.654;23.378;2022-11-03T08:48:12;95307.91;;;21.56;54.16
6833;BME280;3454;42.654;23.378;2022-11-03T08:50:38;95352.50;;;21.73;51.88
6833;BME280;3454;42.654;23.378;2022-11-03T08:53:03;95358.94;;;21.92;51.31
6833;BME280;3454;42.654;23.378;2022-11-03T08:55:29;95351.94;;;22.07;51.15
6833;BME280;3454;42.654;23.378;2022-11-03T08:57:54;95353.25;;;22.17;50.46
6833;BME280;3454;42.654;23.378;2022-11-03T09:00:20;95360.34;;;22.30;50.02
6833;BME280;3454;42.654;23.378;2022-11-03T09:02:46;95347.50;;;22.43;50.69
6833;BME280;3454;42.654;23.378;2022-11-03T09:05:12;95370.91;;;22.71;49.55
6833;BME280;3454;42.654;23.378;2022-11-03T09:07:38;95353.97;;;22.68;49.63
6833;BME280;3454;42.654;23.378;2022-11-03T09:10:08;95348.44;;;22.78;49.92
6833;BME280;3454;42.654;23.378;2022-11-03T09:12:37;95357.38;;;22.96;49.10
6833;BME280;3454;42.654;23.378;2022-11-03T09:15:04;95353.13;;;23.16;49.20
6833;BME280;3454;42.654;23.378;2022-11-03T09:17:30;95370.34;;;23.52;47.51
6833;BME280;3454;42.654;23.378;2022-11-03T09:19:55;95367.47;;;23.74;47.80
6833;BME280;3454;42.654;23.378;2022-11-03T09:22:21;95377.13;;;23.53;46.15
6833;BME280;3454;42.654;23.378;2022-11-03T09:24:47;95362.38;;;23.60;46.26
6833;BME280;3454;42.654;23.378;2022-11-03T09:27:12;95356.88;;;23.76;46.59
6833;BME280;3454;42.654;23.378;2022-11-03T09:29:38;95372.81;;;23.66;45.89
6833;BME280;3454;42.654;23.378;2022-11-03T09:32:03;95371.28;;;23.78;44.58
6833;BME280;3454;42.654;23.378;2022-11-03T09:34:30;95381.38;;;24.01;44.43
6833;BME280;3454;42.654;23.378;2022-11-03T09:36:56;95386.38;;;23.62;43.89
6833;BME280;3454;42.654;23.378;2022-11-03T09:39:21;95374.72;;;23.92;43.94
6833;BME280;3454;42.654;23.378;2022-11-03T09:41:47;95338.72;;;23.42;45.31
6833;BME280;3454;42.654;23.378;2022-11-03T09:44:13;95337.75;;;23.83;45.00
6833;BME280;3454;42.654;23.378;2022-11-03T09:46:38;95344.28;;;23.11;44.89
6833;BME280;3454;42.654;23.378;2022-11-03T09:49:04;95316.09;;;22.52;45.32
6833;BME280;3454;42.654;23.378;2022-11-03T09:51:31;95303.00;;;22.82;46.10
6833;BME280;3454;42.654;23.378;2022-11-03T09:54:02;95298.66;;;23.16;46.07
6833;BME280;3454;42.654;23.378;2022-11-03T09:56:29;95350.78;;;23.56;43.99
6833;BME280;3454;42.654;23.378;2022-11-03T09:58:54;95318.44;;;23.58;44.52
6833;BME280;3454;42.654;23.378;2022-11-03T10:01:20;95327.97;;;23.45;44.12
6833;BME280;3454;42.654;23.378;2022-11-03T10:03:46;95331.94;;;23.88;44.28
6833;BME280;3454;42.654;23.378;2022-11-03T10:06:11;95371.94;;;23.93;42.30
6833;BME280;3454;42.654;23.378;2022-11-03T10:08:38;95352.50;;;23.83;42.92
6833;BME280;3454;42.654;23.378;2022-11-03T10:11:06;95339.19;;;23.52;42.80
6833;BME280;3454;42.654;23.378;2022-11-03T10:13:36;95323.38;;;23.94;43.18
6833;BME280;3454;42.654;23.378;2022-11-03T10:16:05;95311.88;;;24.16;43.47
6833;BME280;3454;42.654;23.378;2022-11-03T10:18:33;95351.50;;;24.31;41.59
6833;BME280;3454;42.654;23.378;2022-11-03T10:21:35;95331.63;;;24.04;41.76
6833;BME280;3454;42.654;23.378;2022-11-03T10:23:54;95302.16;;;23.77;42.44
6833;BME280;3454;42.654;23.378;2022-11-03T10:26:20;95315.47;;;23.68;42.18
6833;BME280;3454;42.654;23.378;2022-11-03T10:29:00;95308.97;;;23.85;41.57
6833;BME280;3454;42.654;23.378;2022-11-03T10:34:00;95328.59;;;23.47;40.67
6833;BME280;3454;42.654;23.378;2022-11-03T10:36:30;95309.47;;;23.26;41.17
6833;BME280;3454;42.654;23.378;2022-11-03T10:38:57;95285.50;;;22.90;41.27
6833;BME280;3454;42.654;23.378;2022-11-03T10:41:25;95303.13;;;23.01;40.95
6833;BME280;3454;42.654;23.378;2022-11-03T10:44:18;95293.06;;;23.19;40.94
6833;BME280;3454;42.654;23.378;2022-11-03T10:47:01;95272.88;;;23.56;41.55
6833;BME280;3454;42.654;23.378;2022-11-03T10:49:29;95289.78;;;23.86;41.08
6833;BME280;3454;42.654;23.378;2022-11-03T10:52:20;95307.28;;;23.64;40.14
6833;BME280;3454;42.654;23.378;2022-11-03T10:54:45;95295.38;;;23.35;40.62
6833;BME280;3454;42.654;23.378;2022-11-03T10:57:11;95306.88;;;23.26;39.51
6833;BME280;3454;42.654;23.378;2022-11-03T10:59:37;95349.91;;;23.83;37.72
6833;BME280;3454;42.654;23.378;2022-11-03T11:02:12;95353.16;;;23.51;36.81
6833;BME280;3454;42.654;23.378;2022-11-03T11:04:39;95323.16;;;23.42;37.75
6833;BME280;3454;42.654;23.378;2022-11-03T11:07:32;95294.16;;;23.31;38.58
6833;BME280;3454;42.654;23.378;2022-11-03T11:10:20;95291.03;;;23.43;38.61
6833;BME280;3454;42.654;23.378;2022-11-03T11:15:58;95307.19;;;23.98;37.65
6833;BME280;3454;42.654;23.378;2022-11-03T11:28:39;95288.47;;;24.16;37.06
6833;BME280;3454;42.654;23.378;2022-11-03T11:47:25;95248.31;;;24.64;36.65
6833;BME280;3454;42.654;23.378;2022-11-03T11:52:46;95256.91;;;24.65;36.24
6833;BME280;3454;42.654;23.378;2022-11-03T11:57:53;95274.72;;;24.94;35.05
6833;BME280;3454;42.654;23.378;2022-11-03T12:00:30;95275.53;;;24.94;34.84
6833;BME280;3454;42.654;23.378;2022-11-03T12:02:56;95240.72;;;24.69;35.24
6833;BME280;3454;42.654;23.378;2022-11-03T12:05:26;95260.13;;;24.80;34.80
6833;BME280;3454;42.654;23.378;2022-11-03T12:07:53;95254.72;;;24.94;34.72
6833;BME280;3454;42.654;23.378;2022-11-03T12:10:23;95257.88;;;25.10;34.71
6833;BME280;3454;42.654;23.378;2022-11-03T12:12:51;95249.09;;;25.04;34.58
6833;BME280;3454;42.654;23.378;2022-11-03T12:18:41;95195.00;;;25.13;34.39
6833;BME280;3454;42.654;23.378;2022-11-03T12:21:12;95194.06;;;25.01;34.28
6833;BME280;3454;42.654;23.378;2022-11-03T12:23:45;95201.44;;;25.04;33.98
6833;BME280;3454;42.654;23.378;2022-11-03T12:28:53;95191.72;;;25.30;33.43
6833;BME280;3454;42.654;23.378;2022-11-03T12:31:19;95192.09;;;25.34;33.37
6833;BME280;3454;42.654;23.378;2022-11-03T12:33:45;95193.06;;;25.52;33.19
6833;BME280;3454;42.654;23.378;2022-11-03T12:36:10;95196.91;;;25.43;33.13
6833;BME280;3454;42.654;23.378;2022-11-03T12:38:35;95186.28;;;25.45;33.07
6833;BME280;3454;42.654;23.378;2022-11-03T12:41:01;95191.38;;;25.14;32.77
6833;BME280;3454;42.654;23.378;2022-11-03T12:43:48;95179.25;;;24.94;33.00
6833;BME280;3454;42.654;23.378;2022-11-03T12:46:15;95168.50;;;24.78;32.98
6833;BME280;3454;42.654;23.378;2022-11-03T12:48:41;95158.50;;;24.68;33.13
6833;BME280;3454;42.654;23.378;2022-11-03T12:51:11;95149.47;;;24.90;33.60
6833;BME280;3454;42.654;23.378;2022-11-03T12:53:38;95147.13;;;24.50;33.44
6833;BME280;3454;42.654;23.378;2022-11-03T12:56:03;95125.88;;;24.72;34.04
6833;BME280;3454;42.654;23.378;2022-11-03T12:58:29;95131.88;;;24.79;33.42
6833;BME280;3454;42.654;23.378;2022-11-03T13:00:55;95146.19;;;25.02;33.29
6833;BME280;3454;42.654;23.378;2022-11-03T13:03:20;95131.16;;;25.04;33.43
6833;BME280;3454;42.654;23.378;2022-11-03T13:05:46;95144.53;;;25.14;33.01
6833;BME280;3454;42.654;23.378;2022-11-03T13:08:12;95141.53;;;25.17;32.79
6833;BME280;3454;42.654;23.378;2022-11-03T13:10:38;95128.56;;;25.04;33.04
6833;BME280;3454;42.654;23.378;2022-11-03T13:13:05;95129.91;;;25.19;33.18
6833;BME280;3454;42.654;23.378;2022-11-03T13:15:37;95122.84;;;24.88;32.75
6833;BME280;3454;42.654;23.378;2022-11-03T13:18:03;95135.06;;;24.81;32.77
6833;BME280;3454;42.654;23.378;2022-11-03T13:20:30;95117.63;;;24.88;32.97
6833;BME280;3454;42.654;23.378;2022-11-03T13:22:56;95103.13;;;25.06;33.34
6833;BME280;3454;42.654;23.378;2022-11-03T13:25:21;95106.22;;;24.83;33.24
6833;BME280;3454;42.654;23.378;2022-11-03T13:27:49;95115.06;;;24.82;33.09
6833;BME280;3454;42.654;23.378;2022-11-03T13:30:18;95098.97;;;24.28;33.43
6833;BME280;3454;42.654;23.378;2022-11-03T13:32:44;95095.19;;;24.17;34.00
6833;BME280;3454;42.654;23.378;2022-11-03T13:35:09;95093.94;;;24.39;33.61
6833;BME280;3454;42.654;23.378;2022-11-03T13:37:34;95088.31;;;24.55;33.60
6833;BME280;3454;42.654;23.378;2022-11-03T13:40:00;95080.31;;;24.50;34.08
6833;BME280;3454;42.654;23.378;2022-11-03T13:42:25;95042.78;;;24.33;35.70
6833;BME280;3454;42.654;23.378;2022-11-03T13:44:50;95051.59;;;24.19;34.71
6833;BME280;3454;42.654;23.378;2022-11-03T13:47:16;95054.38;;;24.24;35.30
6833;BME280;3454;42.654;23.378;2022-11-03T13:49:41;95057.00;;;24.17;34.49
6833;BME280;3454;42.654;23.378;2022-11-03T13:52:07;95052.00;;;23.96;34.52
6833;BME280;3454;42.654;23.378;2022-11-03T13:54:33;95051.22;;;23.76;34.43
6833;BME280;3454;42.654;23.378;2022-11-03T13:56:58;95054.41;;;23.78;34.55
6833;BME280;3454;42.654;23.378;2022-11-03T13:59:24;95049.44;;;23.77;35.01
6833;BME280;3454;42.654;23.378;2022-11-03T14:01:49;95053.19;;;23.94;34.95
6833;BME280;3454;42.654;23.378;2022-11-03T14:04:15;95045.84;;;23.71;35.22
6833;BME280;3454;42.654;23.378;2022-11-03T14:06:40;95028.25;;;23.54;35.84
6833;BME280;3454;42.654;23.378;2022-11-03T14:09:06;95017.28;;;23.32;36.35
6833;BME280;3454;42.654;23.378;2022-11-03T14:11:31;95020.03;;;23.30;36.30
6833;BME280;3454;42.654;23.378;2022-11-03T14:14:15;94991.47;;;23.17;37.14
6833;BME280;3454;42.654;23.378;2022-11-03T14:16:40;95001.44;;;23.01;37.01
6833;BME280;3454;42.654;23.378;2022-11-03T14:19:06;94987.47;;;23.02;37.34
6833;BME280;3454;42.654;23.378;2022-11-03T14:21:32;94982.88;;;22.97;37.75
6833;BME280;3454;42.654;23.378;2022-11-03T14:23:57;94992.09;;;23.06;37.35
6833;BME280;3454;42.654;23.378;2022-11-03T14:26:22;95001.00;;;22.91;37.41
6833;BME280;3454;42.654;23.378;2022-11-03T14:28:48;94997.19;;;22.74;37.17
6833;BME280;3454;42.654;23.378;2022-11-03T14:31:13;94985.72;;;22.48;37.76
6833;BME280;3454;42.654;23.378;2022-11-03T14:33:39;94985.59;;;22.63;37.66